createdAt,value
2022-09-17T00:00:49.651Z,2.30
2022-09-17T00:03:17.130Z,2.30
2022-09-17T00:05:44.309Z,2.30
2022-09-17T00:08:13.854Z,2.03
2022-09-17T00:10:42.780Z,2.23
2022-09-17T00:13:10.204Z,2.10
2022-09-17T00:15:44.672Z,2.40
2022-09-17T00:18:12.532Z,2.23
2022-09-17T00:20:40.367Z,1.83
2022-09-17T00:23:08.541Z,1.83
2022-09-17T00:25:38.250Z,2.33
2022-09-17T00:28:05.314Z,2.40
2022-09-17T00:30:32.484Z,2.07
2022-09-17T00:32:59.570Z,2.20
2022-09-17T00:35:26.751Z,2.10
2022-09-17T00:37:53.879Z,2.13
2022-09-17T00:40:21.784Z,2.07
2022-09-17T00:42:49.024Z,2.37
2022-09-17T00:45:16.179Z,2.63
2022-09-17T00:47:46.247Z,2.63
2022-09-17T00:50:16.299Z,2.53
2022-09-17T00:52:45.442Z,2.33
2022-09-17T00:55:21.542Z,2.73
2022-09-17T00:57:49.841Z,2.50
2022-09-17T01:00:17.499Z,2.70
2022-09-17T01:02:44.933Z,2.67
2022-09-17T01:05:13.116Z,2.60
2022-09-17T01:07:40.198Z,3.03
2022-09-17T01:13:36.057Z,2.53
2022-09-17T01:16:16.529Z,2.60
2022-09-17T01:18:51.192Z,2.70
2022-09-17T01:21:32.174Z,3.07
2022-09-17T01:24:06.726Z,2.70
2022-09-17T01:26:37.240Z,3.03
2022-09-17T01:29:12.433Z,2.20
2022-09-17T01:31:54.284Z,2.60
2022-09-17T01:34:21.465Z,2.50
2022-09-17T01:36:54.429Z,2.63
2022-09-17T01:39:29.950Z,2.60
2022-09-17T01:42:02.963Z,2.57
2022-09-17T01:44:48.052Z,2.70
2022-09-17T01:47:20.758Z,2.60
2022-09-17T01:49:49.066Z,2.70
2022-09-17T01:52:16.482Z,2.60
2022-09-17T01:54:52.053Z,2.37
2022-09-17T01:57:27.125Z,2.50
2022-09-17T02:00:03.033Z,2.77
2022-09-17T02:02:42.551Z,2.80
2022-09-17T02:05:12.213Z,2.30
2022-09-17T02:07:41.285Z,2.10
2022-09-17T02:10:14.321Z,2.03
2022-09-17T02:12:44.573Z,2.07
2022-09-17T02:15:15.046Z,2.10
2022-09-17T02:17:45.668Z,2.30
2022-09-17T02:20:13.794Z,2.47
2022-09-17T02:22:48.712Z,2.60
2022-09-17T02:25:21.000Z,2.27
2022-09-17T02:27:48.086Z,2.17
2022-09-17T02:30:15.441Z,2.10
2022-09-17T02:32:42.671Z,2.17
2022-09-17T02:35:15.970Z,2.23
2022-09-17T02:37:43.543Z,2.20
2022-09-17T02:40:14.778Z,2.40
2022-09-17T02:42:44.931Z,1.87
2022-09-17T02:45:27.063Z,1.87
2022-09-17T02:48:06.056Z,1.83
2022-09-17T02:50:56.968Z,2.10
2022-09-17T02:53:44.289Z,2.30
2022-09-17T02:56:14.490Z,2.00
2022-09-17T02:58:46.512Z,1.87
2022-09-17T03:01:17.249Z,1.90
2022-09-17T03:03:45.865Z,2.17
2022-09-17T03:06:13.391Z,2.00
2022-09-17T03:08:41.669Z,1.97
2022-09-17T03:11:09.409Z,1.87
2022-09-17T03:13:37.169Z,2.20
2022-09-17T03:16:04.588Z,1.93
2022-09-17T03:18:31.924Z,2.13
2022-09-17T03:20:59.267Z,1.87
2022-09-17T03:23:27.935Z,1.90
2022-09-17T03:25:55.350Z,2.13
2022-09-17T03:28:22.562Z,2.10
2022-09-17T03:30:49.703Z,2.27
2022-09-17T03:33:17.333Z,2.33
2022-09-17T03:35:44.696Z,1.80
2022-09-17T03:38:11.946Z,1.90
2022-09-17T03:40:39.921Z,1.90
2022-09-17T03:43:07.710Z,2.00
2022-09-17T03:45:34.909Z,1.93
2022-09-17T03:48:02.097Z,2.27
2022-09-17T03:50:29.243Z,1.97
2022-09-17T03:52:56.356Z,2.30
2022-09-17T03:55:23.427Z,2.27
2022-09-17T03:57:51.277Z,2.33
2022-09-17T04:00:18.432Z,2.47
2022-09-17T04:02:45.585Z,2.20
2022-09-17T04:05:12.793Z,2.30
2022-09-17T04:07:41.209Z,3.23
2022-09-17T04:10:08.950Z,3.20
2022-09-17T04:12:36.042Z,2.97
2022-09-17T04:15:03.148Z,2.50
2022-09-17T04:17:30.252Z,4.00
2022-09-17T04:19:57.613Z,3.10
2022-09-17T04:22:25.061Z,3.00
2022-09-17T04:24:52.159Z,3.27
2022-09-17T04:27:19.360Z,4.10
2022-09-17T04:29:46.450Z,3.37
2022-09-17T04:32:13.590Z,3.53
2022-09-17T04:34:40.706Z,3.73
2022-09-17T04:37:07.803Z,3.53
2022-09-17T04:39:35.392Z,3.60
2022-09-17T04:42:02.552Z,3.50
2022-09-17T04:44:29.625Z,3.80
2022-09-17T04:46:56.835Z,3.87
2022-09-17T04:49:24.065Z,3.90
2022-09-17T04:51:51.188Z,4.03
2022-09-17T04:54:18.781Z,4.23
2022-09-17T04:56:45.933Z,5.03
2022-09-17T04:59:13.044Z,4.00
2022-09-17T05:01:40.208Z,3.97
2022-09-17T05:04:07.516Z,4.00
2022-09-17T05:06:34.626Z,4.40
2022-09-17T05:09:02.152Z,4.10
2022-09-17T05:11:29.516Z,3.80
2022-09-17T05:13:56.765Z,3.70
2022-09-17T05:16:24.073Z,4.10
2022-09-17T05:18:51.739Z,4.20
2022-09-17T05:21:21.845Z,3.90
2022-09-17T05:23:48.944Z,4.07
2022-09-17T05:26:16.093Z,4.00
2022-09-17T05:28:43.311Z,4.17
2022-09-17T05:31:10.499Z,4.40
2022-09-17T05:33:37.661Z,4.53
2022-09-17T05:36:05.020Z,4.37
2022-09-17T05:38:32.194Z,4.00
2022-09-17T05:40:59.274Z,4.40
2022-09-17T05:43:26.449Z,4.00
2022-09-17T05:45:54.660Z,4.00
2022-09-17T05:48:21.831Z,4.43
2022-09-17T05:50:48.963Z,4.50
2022-09-17T05:53:16.082Z,4.03
2022-09-17T05:55:43.243Z,3.80
2022-09-17T05:58:14.791Z,4.43
2022-09-17T06:00:42.622Z,3.70
2022-09-17T06:03:11.803Z,3.87
2022-09-17T06:05:38.954Z,3.50
2022-09-17T06:08:06.147Z,4.07
2022-09-17T06:10:33.329Z,3.57
2022-09-17T06:13:00.522Z,3.43
2022-09-17T06:15:28.723Z,3.53
2022-09-17T06:17:55.893Z,3.50
2022-09-17T06:20:23.010Z,3.70
2022-09-17T06:22:50.187Z,3.67
2022-09-17T06:25:17.305Z,3.43
2022-09-17T06:27:44.432Z,3.63
2022-09-17T06:30:11.707Z,3.57
2022-09-17T06:32:38.800Z,3.20
2022-09-17T06:35:06.327Z,3.00
2022-09-17T06:37:33.862Z,3.00
2022-09-17T06:40:01.079Z,3.00
2022-09-17T06:42:31.266Z,3.07
2022-09-17T06:45:00.386Z,3.27
2022-09-17T06:47:29.140Z,3.30
2022-09-17T06:49:57.173Z,3.00
2022-09-17T06:52:24.313Z,3.43
2022-09-17T06:54:51.414Z,3.23
2022-09-17T06:57:18.568Z,2.83
2022-09-17T06:59:45.669Z,3.00
2022-09-17T07:02:12.900Z,3.03
2022-09-17T07:04:40.082Z,2.77
2022-09-17T07:07:07.228Z,2.80
2022-09-17T07:09:34.301Z,3.23
2022-09-17T07:12:01.431Z,3.00
2022-09-17T07:14:28.533Z,2.50
2022-09-17T07:16:55.839Z,2.57
2022-09-17T07:19:22.918Z,2.93
2022-09-17T07:21:50.115Z,2.93
2022-09-17T07:24:17.309Z,3.23
2022-09-17T07:26:44.420Z,3.43
2022-09-17T07:29:12.520Z,3.10
2022-09-17T07:31:39.646Z,3.20
2022-09-17T07:34:06.836Z,2.60
2022-09-17T07:36:33.984Z,2.97
2022-09-17T07:39:01.116Z,2.83
2022-09-17T07:41:28.223Z,2.53
2022-09-17T07:43:55.491Z,2.60
2022-09-17T07:46:22.996Z,2.60
2022-09-17T07:48:50.616Z,2.50
2022-09-17T07:51:18.582Z,2.30
2022-09-17T07:53:46.537Z,2.20
2022-09-17T07:56:13.758Z,2.37
2022-09-17T07:58:41.060Z,2.10
2022-09-17T08:01:09.435Z,2.30
2022-09-17T08:03:36.801Z,2.03
2022-09-17T08:06:08.436Z,1.93
2022-09-17T08:08:36.106Z,1.90
2022-09-17T08:11:07.785Z,2.07
2022-09-17T08:13:35.434Z,2.03
2022-09-17T08:16:03.493Z,2.03
2022-09-17T08:18:30.731Z,2.10
2022-09-17T08:21:01.571Z,2.40
2022-09-17T08:23:29.276Z,2.07
2022-09-17T08:25:57.161Z,2.60
2022-09-17T08:28:25.473Z,2.33
2022-09-17T08:30:53.116Z,2.63
2022-09-17T08:33:20.272Z,2.53
2022-09-17T08:36:06.211Z,2.80
2022-09-17T08:38:37.813Z,3.00
2022-09-17T08:41:14.499Z,2.10
2022-09-17T08:43:41.595Z,2.90
2022-09-17T08:46:10.663Z,2.07
2022-09-17T08:48:41.985Z,2.45
2022-09-17T08:51:15.509Z,2.10
2022-09-17T08:53:51.959Z,2.30
2022-09-17T08:56:19.874Z,2.30
2022-09-17T08:58:52.952Z,2.10
2022-09-17T09:01:28.996Z,2.55
2022-09-17T09:04:00.585Z,2.35
2022-09-17T09:06:32.123Z,2.38
2022-09-17T09:09:03.858Z,2.50
2022-09-17T09:11:31.900Z,2.30
2022-09-17T09:13:58.999Z,2.22
2022-09-17T09:16:27.297Z,2.60
2022-09-17T09:19:00.487Z,2.35
2022-09-17T09:21:28.883Z,2.83
2022-09-17T09:23:59.095Z,2.35
2022-09-17T09:26:38.536Z,2.78
2022-09-17T09:29:10.129Z,2.50
2022-09-17T09:31:58.855Z,2.60
2022-09-17T09:34:27.339Z,2.50
2022-09-17T09:36:59.739Z,2.40
2022-09-17T09:39:33.634Z,2.43
2022-09-17T09:42:15.722Z,2.53
2022-09-17T09:44:43.133Z,2.60
2022-09-17T09:47:42.807Z,2.60
2022-09-17T09:50:43.197Z,2.63
2022-09-17T09:53:23.227Z,2.40
2022-09-17T09:55:50.302Z,2.80
2022-09-17T09:58:17.425Z,2.40
2022-09-17T10:00:44.585Z,2.42
2022-09-17T10:03:16.317Z,2.22
2022-09-17T10:06:12.543Z,2.22
2022-09-17T10:08:40.927Z,2.40
2022-09-17T10:11:13.799Z,1.80
2022-09-17T10:13:41.174Z,2.05
2022-09-17T10:16:21.774Z,1.97
2022-09-17T10:18:49.689Z,1.50
2022-09-17T10:21:36.402Z,1.30
2022-09-17T10:24:04.856Z,1.70
2022-09-17T10:26:36.193Z,2.03
2022-09-17T10:29:04.337Z,1.67
2022-09-17T10:31:50.162Z,1.58
2022-09-17T10:34:21.370Z,1.70
2022-09-17T10:36:48.823Z,2.00
2022-09-17T10:39:20.305Z,1.65
2022-09-17T10:42:00.902Z,1.88
2022-09-17T10:44:29.177Z,1.73
2022-09-17T10:47:02.233Z,1.75
2022-09-17T10:49:32.435Z,1.67
2022-09-17T10:52:06.719Z,1.80
2022-09-17T10:54:52.190Z,1.80
2022-09-17T10:57:26.643Z,1.88
2022-09-17T11:00:15.941Z,2.22
2022-09-17T11:02:55.322Z,1.83
2022-09-17T11:05:34.651Z,1.88
2022-09-17T11:08:23.281Z,1.93
2022-09-17T11:10:56.299Z,1.93
2022-09-17T11:13:29.279Z,2.20
2022-09-17T11:15:56.451Z,1.83
2022-09-17T11:18:23.533Z,2.00
2022-09-17T11:21:02.498Z,2.17
2022-09-17T11:23:44.606Z,1.87
2022-09-17T11:26:31.306Z,2.05
2022-09-17T11:29:04.382Z,1.75
2022-09-17T11:31:38.203Z,1.90
2022-09-17T11:34:11.462Z,1.58
2022-09-17T11:36:46.854Z,1.63
2022-09-17T11:39:24.113Z,1.90
2022-09-17T11:41:52.319Z,1.63
2022-09-17T11:44:25.870Z,1.85
2022-09-17T11:47:06.134Z,1.73
2022-09-17T11:49:36.024Z,1.77
2022-09-17T11:52:06.492Z,1.80
2022-09-17T11:54:56.709Z,1.77
2022-09-17T11:57:27.697Z,1.97
2022-09-17T11:59:54.749Z,1.97
2022-09-17T12:02:28.689Z,1.80
2022-09-17T12:05:04.844Z,2.00
2022-09-17T12:07:50.731Z,2.17
2022-09-17T12:10:36.485Z,2.00
2022-09-17T12:13:08.380Z,2.17
2022-09-17T12:15:36.709Z,2.20
2022-09-17T12:18:31.228Z,2.00
2022-09-17T12:21:01.057Z,2.00
2022-09-17T12:23:41.750Z,2.30
2022-09-17T12:26:08.846Z,1.97
2022-09-17T12:28:44.780Z,1.63
2022-09-17T12:31:18.743Z,1.83
2022-09-17T12:34:15.263Z,1.53
2022-09-17T12:36:53.915Z,1.73
2022-09-17T12:39:29.960Z,1.33
2022-09-17T12:42:03.945Z,1.33
2022-09-17T12:44:39.877Z,1.40
2022-09-17T12:47:12.916Z,1.17
2022-09-17T12:49:40.040Z,1.20
2022-09-17T12:52:10.147Z,1.10
2022-09-17T12:54:45.828Z,1.38
2022-09-17T12:57:31.851Z,1.45
2022-09-17T13:00:06.948Z,1.40
2022-09-17T13:02:44.037Z,1.55
2022-09-17T13:05:35.852Z,1.70
2022-09-17T13:08:23.869Z,1.50
2022-09-17T13:10:57.171Z,1.40
2022-09-17T13:13:24.295Z,1.42
2022-09-17T13:16:14.311Z,1.35
2022-09-17T13:18:59.303Z,1.13
2022-09-17T13:21:34.238Z,1.50
2022-09-17T13:24:01.577Z,1.30
2022-09-17T13:26:36.785Z,1.10
2022-09-17T13:29:08.251Z,2.08
2022-09-17T13:31:35.424Z,1.63
2022-09-17T13:34:03.275Z,2.05
2022-09-17T13:36:36.335Z,2.50
2022-09-17T13:39:04.413Z,1.58
2022-09-17T13:41:33.717Z,1.43
2022-09-17T13:44:02.966Z,1.10
2022-09-17T13:46:32.654Z,1.30
2022-09-17T13:49:01.973Z,2.03
2022-09-17T13:51:34.651Z,1.30
2022-09-17T13:54:07.427Z,1.35
2022-09-17T13:56:38.756Z,1.10
2022-09-17T13:59:10.647Z,1.13
2022-09-17T14:01:49.720Z,1.30
2022-09-17T14:04:35.340Z,1.70
2022-09-17T14:07:23.497Z,1.25
2022-09-17T14:10:09.490Z,0.80
2022-09-17T14:12:47.636Z,1.50
2022-09-17T14:15:33.535Z,1.02
2022-09-17T14:18:02.589Z,1.10
2022-09-17T14:20:30.737Z,1.00
2022-09-17T14:23:04.027Z,0.95
2022-09-17T14:25:39.169Z,1.13
2022-09-17T14:28:14.639Z,0.90
2022-09-17T14:30:44.194Z,1.40
2022-09-17T14:33:18.837Z,1.20
2022-09-17T14:35:50.423Z,1.10
2022-09-17T14:38:21.187Z,0.88
2022-09-17T14:40:50.528Z,1.15
2022-09-17T14:43:22.852Z,1.20
2022-09-17T14:45:51.491Z,1.00
2022-09-17T14:48:22.506Z,0.90
2022-09-17T14:50:49.660Z,1.10
2022-09-17T14:53:18.345Z,1.20
2022-09-17T14:55:47.482Z,1.30
2022-09-17T14:58:44.075Z,1.17
2022-09-17T15:01:40.364Z,1.27
2022-09-17T15:04:13.243Z,1.10
2022-09-17T15:06:41.123Z,1.15
2022-09-17T15:09:18.733Z,0.88
2022-09-17T15:11:48.073Z,1.10
2022-09-17T15:14:18.234Z,1.00
2022-09-17T15:16:49.731Z,1.33
2022-09-17T15:19:21.640Z,0.90
2022-09-17T15:21:50.025Z,1.23
2022-09-17T15:24:23.362Z,1.00
2022-09-17T15:26:52.573Z,1.07
2022-09-17T15:29:23.916Z,3.10
2022-09-17T15:31:51.110Z,1.10
2022-09-17T15:34:18.294Z,1.67
2022-09-17T15:37:05.218Z,1.23
2022-09-17T15:39:38.657Z,1.30
2022-09-17T15:42:05.805Z,1.10
2022-09-17T15:44:33.272Z,0.90
2022-09-17T15:47:19.115Z,0.83
2022-09-17T15:50:04.604Z,0.70
2022-09-17T15:52:35.075Z,0.80
2022-09-17T15:55:02.294Z,1.20
2022-09-17T15:57:30.365Z,1.17
2022-09-17T16:00:05.979Z,1.53
2022-09-17T16:02:33.472Z,0.90
2022-09-17T16:05:19.174Z,1.40
2022-09-17T16:07:46.554Z,0.90
2022-09-17T16:10:15.241Z,1.40
2022-09-17T16:12:42.737Z,0.90
2022-09-17T16:15:09.958Z,0.90
2022-09-17T16:17:37.100Z,0.60
2022-09-17T16:20:09.475Z,0.73
2022-09-17T16:22:36.602Z,0.87
2022-09-17T16:25:03.820Z,0.67
2022-09-17T16:27:33.675Z,0.80
2022-09-17T16:30:05.550Z,0.70
2022-09-17T16:32:32.689Z,0.80
2022-09-17T16:34:59.934Z,0.83
2022-09-17T16:37:27.336Z,0.97
2022-09-17T16:39:54.761Z,0.70
2022-09-17T16:42:21.899Z,0.80
2022-09-17T16:44:49.037Z,0.70
2022-09-17T16:47:16.153Z,0.80
2022-09-17T16:49:43.226Z,0.80
2022-09-17T16:52:10.325Z,0.80
2022-09-17T16:54:37.448Z,0.63
2022-09-17T16:57:04.787Z,1.00
2022-09-17T16:59:31.924Z,0.87
2022-09-17T17:01:59.123Z,0.70
2022-09-17T17:04:26.245Z,1.03
2022-09-17T17:06:53.323Z,0.83
2022-09-17T17:09:20.482Z,0.80
2022-09-17T17:11:47.588Z,0.90
2022-09-17T17:14:15.116Z,0.90
2022-09-17T17:16:43.648Z,0.90
2022-09-17T17:19:11.011Z,0.97
2022-09-17T17:21:38.635Z,0.90
2022-09-17T17:24:06.933Z,1.00
2022-09-17T17:26:34.601Z,0.90
2022-09-17T17:29:02.915Z,0.90
2022-09-17T17:31:30.142Z,0.80
2022-09-17T17:33:58.207Z,0.90
2022-09-17T17:36:25.306Z,1.00
2022-09-17T17:38:56.544Z,1.00
2022-09-17T17:41:25.933Z,1.37
2022-09-17T17:43:53.746Z,1.03
2022-09-17T17:46:20.952Z,1.03
2022-09-17T17:48:48.183Z,1.30
2022-09-17T17:51:18.090Z,1.20
2022-09-17T17:53:45.743Z,1.20
2022-09-17T17:56:13.112Z,1.00
2022-09-17T17:58:40.833Z,1.33
2022-09-17T18:01:16.336Z,1.13
2022-09-17T18:03:43.791Z,1.40
2022-09-17T18:06:11.334Z,1.43
2022-09-17T18:08:39.034Z,1.77
2022-09-17T18:11:08.109Z,1.80
2022-09-17T18:13:39.327Z,1.43
2022-09-17T18:16:07.629Z,1.07
2022-09-17T18:18:35.825Z,1.10
2022-09-17T18:21:05.626Z,1.00
2022-09-17T18:23:34.130Z,1.23
2022-09-17T18:26:02.103Z,1.00
2022-09-17T18:28:30.458Z,1.30
2022-09-17T18:30:58.450Z,1.00
2022-09-17T18:33:26.830Z,0.90
2022-09-17T18:35:57.139Z,1.37
2022-09-17T18:38:24.530Z,0.90
2022-09-17T18:40:51.981Z,1.00
2022-09-17T18:43:19.212Z,0.70
2022-09-17T18:45:55.958Z,1.03
2022-09-17T18:48:23.715Z,0.90
2022-09-17T18:51:01.492Z,0.83
2022-09-17T18:53:29.400Z,1.00
2022-09-17T18:55:58.376Z,0.93
2022-09-17T18:58:25.537Z,0.90
2022-09-17T19:00:52.657Z,0.90
2022-09-17T19:03:19.763Z,1.10
2022-09-17T19:05:46.843Z,1.10
2022-09-17T19:08:14.558Z,1.27
2022-09-17T19:10:41.697Z,1.20
2022-09-17T19:13:08.822Z,1.20
2022-09-17T19:15:36.010Z,0.90
2022-09-17T19:18:03.164Z,1.13
2022-09-17T19:20:35.671Z,1.00
2022-09-17T19:23:02.813Z,1.10
2022-09-17T19:25:30.160Z,0.90
2022-09-17T19:27:57.786Z,0.90
2022-09-17T19:30:25.131Z,1.10
2022-09-17T19:32:52.297Z,1.00
2022-09-17T19:35:19.399Z,1.07
2022-09-17T19:37:46.536Z,1.13
2022-09-17T19:40:13.717Z,0.97
2022-09-17T19:42:41.079Z,1.00
2022-09-17T19:45:08.466Z,1.17
2022-09-17T19:47:35.533Z,1.17
2022-09-17T19:50:02.696Z,0.90
2022-09-17T19:52:29.836Z,1.10
2022-09-17T19:54:56.947Z,1.27
2022-09-17T19:57:24.150Z,0.83
2022-09-17T19:59:51.303Z,1.10
2022-09-17T20:02:18.437Z,1.00
2022-09-17T20:04:46.919Z,1.10
2022-09-17T20:07:14.055Z,1.37
2022-09-17T20:09:41.198Z,1.27
2022-09-17T20:12:08.343Z,1.00
2022-09-17T20:14:35.484Z,1.23
2022-09-17T20:17:02.616Z,1.20
2022-09-17T20:19:29.986Z,1.10
2022-09-17T20:21:57.090Z,1.23
2022-09-17T20:24:24.208Z,1.20
2022-09-17T20:26:51.341Z,1.20
2022-09-17T20:29:18.447Z,1.20
2022-09-17T20:31:45.986Z,1.27
2022-09-17T20:34:13.204Z,1.03
2022-09-17T20:36:40.354Z,1.00
2022-09-17T20:39:16.529Z,0.90
2022-09-17T20:41:49.686Z,1.10
2022-09-17T20:44:17.829Z,1.00
2022-09-17T20:46:44.973Z,1.30
2022-09-17T20:49:12.062Z,1.40
2022-09-17T20:51:39.213Z,1.10
2022-09-17T20:54:07.561Z,1.00
2022-09-17T20:56:35.032Z,1.10
2022-09-17T20:59:13.279Z,1.10
2022-09-17T21:01:41.150Z,1.20
2022-09-17T21:04:09.055Z,1.40
2022-09-17T21:06:37.900Z,1.20
2022-09-17T21:09:06.258Z,1.30
2022-09-17T21:11:34.370Z,1.43
2022-09-17T21:14:01.740Z,1.10
2022-09-17T21:16:29.222Z,1.20
2022-09-17T21:19:01.496Z,1.10
2022-09-17T21:21:28.998Z,1.30
2022-09-17T21:24:00.961Z,1.27
2022-09-17T21:26:28.491Z,1.20
2022-09-17T21:28:56.428Z,1.30
2022-09-17T21:31:32.029Z,1.33
2022-09-17T21:34:01.157Z,1.30
2022-09-17T21:36:29.219Z,1.23
2022-09-17T21:39:00.334Z,1.50
2022-09-17T21:41:28.046Z,1.40
2022-09-17T21:43:55.459Z,1.57
2022-09-17T21:46:23.908Z,1.20
2022-09-17T21:48:52.084Z,1.30
2022-09-17T21:51:23.428Z,1.57
2022-09-17T21:53:51.681Z,1.40
2022-09-17T21:56:19.627Z,1.73
2022-09-17T21:58:47.445Z,1.70
2022-09-17T22:01:16.093Z,1.27
2022-09-17T22:03:44.220Z,1.23
2022-09-17T22:06:16.902Z,1.23
2022-09-17T22:08:44.399Z,1.43
2022-09-17T22:11:11.532Z,1.30
2022-09-17T22:13:38.867Z,1.80
2022-09-17T22:16:07.111Z,1.57
2022-09-17T22:18:35.530Z,1.40
2022-09-17T22:21:12.279Z,1.40
2022-09-17T22:23:39.370Z,1.53
2022-09-17T22:26:06.985Z,1.57
2022-09-17T22:28:34.492Z,1.70
2022-09-17T22:31:02.462Z,1.27
2022-09-17T22:33:36.659Z,1.60
2022-09-17T22:36:08.505Z,1.50
2022-09-17T22:38:36.201Z,1.70
2022-09-17T22:41:07.813Z,1.93
2022-09-17T22:43:35.427Z,1.70
2022-09-17T22:46:10.423Z,1.67
2022-09-17T22:48:37.638Z,1.50
2022-09-17T22:51:04.921Z,1.50
2022-09-17T22:53:32.037Z,1.70
2022-09-17T22:56:01.015Z,1.57
2022-09-17T22:58:28.389Z,1.53
2022-09-17T23:00:55.794Z,1.77
2022-09-17T23:03:29.449Z,1.60
2022-09-17T23:06:03.658Z,1.50
2022-09-17T23:08:30.795Z,1.60
2022-09-17T23:10:57.863Z,1.50
2022-09-17T23:13:24.937Z,1.40
2022-09-17T23:15:52.563Z,1.33
2022-09-17T23:18:19.828Z,1.23
2022-09-17T23:20:57.034Z,1.67
2022-09-17T23:23:24.766Z,1.70
2022-09-17T23:25:51.958Z,1.60
2022-09-17T23:28:19.052Z,1.30
2022-09-17T23:30:46.155Z,1.50
2022-09-17T23:33:14.485Z,1.53
2022-09-17T23:35:41.619Z,1.30
2022-09-17T23:38:08.873Z,1.90
2022-09-17T23:40:36.034Z,1.80
2022-09-17T23:43:03.197Z,1.70
2022-09-17T23:45:30.292Z,1.60
2022-09-17T23:47:57.358Z,1.70
2022-09-17T23:50:25.768Z,1.80
2022-09-17T23:52:52.883Z,1.73
2022-09-17T23:55:20.079Z,1.93
2022-09-17T23:57:47.188Z,1.60
